Frenchville, ME (04745)

12:13 AM EST on February 11, 2016 (GMT -0500)
K1FTK | | Change Station
CLOSE
Current Station
Personal Weather Station
Location: Saint Agatha, ME
Elevation: 825 ft
Nearby Weather Stations

Elev 825 ft 47.25 °N, 68.35 °W | Updated 3 minutes ago

Overcast
Overcast
13.5 °F
Feels Like 14 °F
N
0.0
Wind Variable Wind from NNE
Gusts 0.0 mph

Today
High -- | Low -- °F
--% Chance of Precip.
Yesterday
High -- | Low -- °F
Precip. -- in
Pressure 29.54 in
Visibility 10.0 miles
Clouds Scattered Clouds 4400 ft
Overcast 8000 ft
Windchill 14 °F
Dew Point 11 °F
Humidity 90%
Rainfall 0.00 in
Snow Depth Not available.
6:45 AM 4:50 PM
Waxing Crescent, 9% visible
METAR KFVE 110453Z AUTO 33007KT 10SM SCT044 OVC080 M10/M12 A2949 RMK AO2 SNB00E38 SLP001 P0000 T11001122 410671150
Pressure 29.54 in
Visibility 10.0 miles
Clouds Scattered Clouds 4400 ft
Overcast 8000 ft
Windchill 14 °F
Dew Point 11 °F
Humidity 90%
Rainfall 0.00 in
Snow Depth Not available.
6:45 AM 4:50 PM
Waxing Crescent, 9% visible
METAR KFVE 110453Z AUTO 33007KT 10SM SCT044 OVC080 M10/M12 A2949 RMK AO2 SNB00E38 SLP001 P0000 T11001122 410671150

10-Day Weather Forecast

Almanac

Astronomy

Feb. 11, 2016 Rise Set
Actual Time
Civil Twilight
Nautical Twilight
Astronomical Twilight
Moon
Length of Visible Light
Length of Day
Tomorrow will be .
, % of the Moon is Illuminated

Today's Extremes

State Highs State Lows

Community

WunderPhotos

Upload Photos

1,892,023 photos uploaded!

WunderBlog® & News

Nearby

Air Quality

  Air Quality AQ Index Pollutant
Not available.

Snow Depth

Station Depth Elevation

Earthquake Activity

City Distance Mag. Time & Date
Minimum magnitude displayed is 2.5.

Coastal Water Temperatures

Place Temperature

Stations

Nearby Weather Stations

Station Location Temp. Windchill Dew Point Humidity Wind Precip. Elev Updated Type
                   

Watches & Warnings

There are currently no watches in effect.